sensor_id;sensor_type;location;lat;lon;timestamp;P1;durP1;ratioP1;P2;durP2;ratioP2
17177;SDS011;8704;52.006;4.374;2023-08-08T00:00:58;7.63;;;3.10;;
17177;SDS011;8704;52.006;4.374;2023-08-08T00:03:28;11.02;;;3.42;;
17177;SDS011;8704;52.006;4.374;2023-08-08T00:05:56;11.43;;;2.88;;
17177;SDS011;8704;52.006;4.374;2023-08-08T00:08:24;6.10;;;2.70;;
17177;SDS011;8704;52.006;4.374;2023-08-08T00:10:52;7.15;;;2.70;;
17177;SDS011;8704;52.006;4.374;2023-08-08T00:13:20;8.13;;;2.40;;
17177;SDS011;8704;52.006;4.374;2023-08-08T00:15:49;5.90;;;2.45;;
17177;SDS011;8704;52.006;4.374;2023-08-08T00:18:17;6.30;;;2.08;;
17177;SDS011;8704;52.006;4.374;2023-08-08T00:20:46;9.82;;;2.30;;
17177;SDS011;8704;52.006;4.374;2023-08-08T00:23:14;6.35;;;2.30;;
17177;SDS011;8704;52.006;4.374;2023-08-08T00:25:43;5.88;;;2.10;;
17177;SDS011;8704;52.006;4.374;2023-08-08T00:28:16;5.00;;;2.05;;
17177;SDS011;8704;52.006;4.374;2023-08-08T00:30:44;7.15;;;2.40;;
17177;SDS011;8704;52.006;4.374;2023-08-08T00:33:13;7.50;;;2.20;;
17177;SDS011;8704;52.006;4.374;2023-08-08T00:35:41;5.90;;;2.08;;
17177;SDS011;8704;52.006;4.374;2023-08-08T00:38:12;6.22;;;2.47;;
17177;SDS011;8704;52.006;4.374;2023-08-08T00:40:40;7.25;;;2.33;;
17177;SDS011;8704;52.006;4.374;2023-08-08T00:43:08;6.53;;;2.22;;
17177;SDS011;8704;52.006;4.374;2023-08-08T00:45:37;6.22;;;2.35;;
17177;SDS011;8704;52.006;4.374;2023-08-08T00:48:05;6.75;;;2.30;;
17177;SDS011;8704;52.006;4.374;2023-08-08T00:50:34;5.03;;;2.20;;
17177;SDS011;8704;52.006;4.374;2023-08-08T00:53:03;4.90;;;2.08;;
17177;SDS011;8704;52.006;4.374;2023-08-08T00:55:33;6.90;;;2.30;;
17177;SDS011;8704;52.006;4.374;2023-08-08T00:58:02;6.60;;;2.55;;
17177;SDS011;8704;52.006;4.374;2023-08-08T01:00:30;5.90;;;2.20;;
17177;SDS011;8704;52.006;4.374;2023-08-08T01:02:59;7.10;;;2.45;;
17177;SDS011;8704;52.006;4.374;2023-08-08T01:05:28;5.38;;;2.40;;
17177;SDS011;8704;52.006;4.374;2023-08-08T01:08:05;4.70;;;2.42;;
17177;SDS011;8704;52.006;4.374;2023-08-08T01:10:37;7.13;;;2.42;;
17177;SDS011;8704;52.006;4.374;2023-08-08T01:13:07;4.88;;;2.08;;
17177;SDS011;8704;52.006;4.374;2023-08-08T01:15:38;6.17;;;2.40;;
17177;SDS011;8704;52.006;4.374;2023-08-08T01:18:08;5.97;;;2.42;;
17177;SDS011;8704;52.006;4.374;2023-08-08T01:20:37;5.70;;;2.25;;
17177;SDS011;8704;52.006;4.374;2023-08-08T01:23:09;8.05;;;2.38;;
17177;SDS011;8704;52.006;4.374;2023-08-08T01:25:41;6.55;;;2.35;;
17177;SDS011;8704;52.006;4.374;2023-08-08T01:28:11;5.32;;;2.17;;
17177;SDS011;8704;52.006;4.374;2023-08-08T01:30:39;4.47;;;1.80;;
17177;SDS011;8704;52.006;4.374;2023-08-08T01:33:08;4.72;;;2.15;;
17177;SDS011;8704;52.006;4.374;2023-08-08T01:35:37;5.97;;;2.13;;
17177;SDS011;8704;52.006;4.374;2023-08-08T01:38:08;5.30;;;2.20;;
17177;SDS011;8704;52.006;4.374;2023-08-08T01:40:42;5.78;;;2.20;;
17177;SDS011;8704;52.006;4.374;2023-08-08T01:43:11;9.20;;;1.90;;
17177;SDS011;8704;52.006;4.374;2023-08-08T01:45:42;5.43;;;2.00;;
17177;SDS011;8704;52.006;4.374;2023-08-08T01:48:11;5.50;;;2.30;;
17177;SDS011;8704;52.006;4.374;2023-08-08T01:50:39;6.15;;;2.10;;
17177;SDS011;8704;52.006;4.374;2023-08-08T01:53:07;5.85;;;2.03;;
17177;SDS011;8704;52.006;4.374;2023-08-08T01:55:36;4.35;;;1.70;;
17177;SDS011;8704;52.006;4.374;2023-08-08T01:58:06;6.93;;;1.70;;
17177;SDS011;8704;52.006;4.374;2023-08-08T02:00:34;7.30;;;2.03;;
17177;SDS011;8704;52.006;4.374;2023-08-08T02:03:03;3.35;;;1.65;;
17177;SDS011;8704;52.006;4.374;2023-08-08T02:05:31;6.18;;;1.95;;
17177;SDS011;8704;52.006;4.374;2023-08-08T02:08:00;6.55;;;1.67;;
17177;SDS011;8704;52.006;4.374;2023-08-08T02:10:28;4.80;;;1.70;;
17177;SDS011;8704;52.006;4.374;2023-08-08T02:12:56;5.55;;;1.63;;
17177;SDS011;8704;52.006;4.374;2023-08-08T02:15:25;5.35;;;1.80;;
17177;SDS011;8704;52.006;4.374;2023-08-08T02:17:53;8.00;;;1.80;;
17177;SDS011;8704;52.006;4.374;2023-08-08T02:20:22;6.20;;;1.90;;
17177;SDS011;8704;52.006;4.374;2023-08-08T02:22:50;6.75;;;1.63;;
17177;SDS011;8704;52.006;4.374;2023-08-08T02:25:18;6.28;;;1.80;;
17177;SDS011;8704;52.006;4.374;2023-08-08T02:27:46;8.88;;;2.17;;
17177;SDS011;8704;52.006;4.374;2023-08-08T02:30:14;4.20;;;2.00;;
17177;SDS011;8704;52.006;4.374;2023-08-08T02:32:44;4.97;;;1.85;;
17177;SDS011;8704;52.006;4.374;2023-08-08T02:35:12;9.32;;;2.13;;
17177;SDS011;8704;52.006;4.374;2023-08-08T02:37:40;7.97;;;1.65;;
17177;SDS011;8704;52.006;4.374;2023-08-08T02:40:09;4.22;;;1.48;;
17177;SDS011;8704;52.006;4.374;2023-08-08T02:42:37;4.88;;;1.60;;
17177;SDS011;8704;52.006;4.374;2023-08-08T02:45:06;5.45;;;1.40;;
17177;SDS011;8704;52.006;4.374;2023-08-08T02:47:35;3.40;;;1.38;;
17177;SDS011;8704;52.006;4.374;2023-08-08T02:50:04;5.53;;;1.73;;
17177;SDS011;8704;52.006;4.374;2023-08-08T02:52:33;3.08;;;1.30;;
17177;SDS011;8704;52.006;4.374;2023-08-08T02:55:01;3.50;;;1.30;;
17177;SDS011;8704;52.006;4.374;2023-08-08T02:57:30;5.53;;;1.60;;
17177;SDS011;8704;52.006;4.374;2023-08-08T02:59:58;6.68;;;1.48;;
17177;SDS011;8704;52.006;4.374;2023-08-08T03:02:26;6.00;;;1.40;;
17177;SDS011;8704;52.006;4.374;2023-08-08T03:04:54;5.28;;;1.50;;
17177;SDS011;8704;52.006;4.374;2023-08-08T03:07:23;5.47;;;1.67;;
17177;SDS011;8704;52.006;4.374;2023-08-08T03:09:51;5.30;;;1.60;;
17177;SDS011;8704;52.006;4.374;2023-08-08T03:12:20;6.43;;;1.27;;
17177;SDS011;8704;52.006;4.374;2023-08-08T03:14:48;7.30;;;1.60;;
17177;SDS011;8704;52.006;4.374;2023-08-08T03:17:16;5.10;;;1.52;;
17177;SDS011;8704;52.006;4.374;2023-08-08T03:19:44;5.18;;;1.80;;
17177;SDS011;8704;52.006;4.374;2023-08-08T03:22:12;5.13;;;1.75;;
17177;SDS011;8704;52.006;4.374;2023-08-08T03:24:42;4.75;;;1.52;;
17177;SDS011;8704;52.006;4.374;2023-08-08T03:27:10;5.10;;;1.80;;
17177;SDS011;8704;52.006;4.374;2023-08-08T03:29:38;4.68;;;1.60;;
17177;SDS011;8704;52.006;4.374;2023-08-08T03:32:06;6.72;;;1.73;;
17177;SDS011;8704;52.006;4.374;2023-08-08T03:34:34;4.82;;;1.30;;
17177;SDS011;8704;52.006;4.374;2023-08-08T03:37:03;4.32;;;1.60;;
17177;SDS011;8704;52.006;4.374;2023-08-08T03:39:31;7.55;;;1.83;;
17177;SDS011;8704;52.006;4.374;2023-08-08T03:42:01;3.55;;;1.50;;
17177;SDS011;8704;52.006;4.374;2023-08-08T03:44:29;7.60;;;1.60;;
17177;SDS011;8704;52.006;4.374;2023-08-08T03:46:57;4.35;;;1.60;;
17177;SDS011;8704;52.006;4.374;2023-08-08T03:49:44;5.28;;;1.60;;
17177;SDS011;8704;52.006;4.374;2023-08-08T03:52:12;9.45;;;1.65;;
17177;SDS011;8704;52.006;4.374;2023-08-08T03:54:41;5.50;;;1.45;;
17177;SDS011;8704;52.006;4.374;2023-08-08T03:57:11;4.63;;;1.40;;
17177;SDS011;8704;52.006;4.374;2023-08-08T03:59:39;6.38;;;1.75;;
17177;SDS011;8704;52.006;4.374;2023-08-08T04:02:07;5.70;;;1.48;;
17177;SDS011;8704;52.006;4.374;2023-08-08T04:04:35;6.32;;;1.50;;
17177;SDS011;8704;52.006;4.374;2023-08-08T04:07:05;5.38;;;1.55;;
17177;SDS011;8704;52.006;4.374;2023-08-08T04:09:33;4.13;;;1.52;;
17177;SDS011;8704;52.006;4.374;2023-08-08T04:12:01;4.97;;;1.60;;
17177;SDS011;8704;52.006;4.374;2023-08-08T04:14:30;3.42;;;1.30;;
17177;SDS011;8704;52.006;4.374;2023-08-08T04:16:59;4.00;;;1.25;;
17177;SDS011;8704;52.006;4.374;2023-08-08T04:19:27;4.93;;;1.70;;
17177;SDS011;8704;52.006;4.374;2023-08-08T04:21:55;4.90;;;1.38;;
17177;SDS011;8704;52.006;4.374;2023-08-08T04:24:24;5.13;;;1.50;;
17177;SDS011;8704;52.006;4.374;2023-08-08T04:26:52;4.18;;;1.50;;
17177;SDS011;8704;52.006;4.374;2023-08-08T04:29:21;4.90;;;1.55;;
17177;SDS011;8704;52.006;4.374;2023-08-08T04:31:50;4.60;;;1.17;;
17177;SDS011;8704;52.006;4.374;2023-08-08T04:34:18;4.22;;;1.13;;
17177;SDS011;8704;52.006;4.374;2023-08-08T04:36:46;6.50;;;1.40;;
17177;SDS011;8704;52.006;4.374;2023-08-08T04:39:14;6.10;;;1.30;;
17177;SDS011;8704;52.006;4.374;2023-08-08T04:41:42;4.70;;;1.40;;
17177;SDS011;8704;52.006;4.374;2023-08-08T04:44:10;6.05;;;1.50;;
17177;SDS011;8704;52.006;4.374;2023-08-08T04:46:39;7.15;;;1.50;;
17177;SDS011;8704;52.006;4.374;2023-08-08T04:49:08;7.05;;;1.73;;
17177;SDS011;8704;52.006;4.374;2023-08-08T04:51:36;7.22;;;1.60;;
17177;SDS011;8704;52.006;4.374;2023-08-08T04:54:04;5.93;;;1.58;;
17177;SDS011;8704;52.006;4.374;2023-08-08T04:56:32;7.70;;;1.65;;
17177;SDS011;8704;52.006;4.374;2023-08-08T04:59:00;7.78;;;1.55;;
17177;SDS011;8704;52.006;4.374;2023-08-08T05:01:29;5.20;;;1.50;;
17177;SDS011;8704;52.006;4.374;2023-08-08T05:03:57;5.78;;;1.55;;
17177;SDS011;8704;52.006;4.374;2023-08-08T05:06:26;5.80;;;1.67;;
17177;SDS011;8704;52.006;4.374;2023-08-08T05:08:54;4.40;;;1.23;;
17177;SDS011;8704;52.006;4.374;2023-08-08T05:11:23;5.57;;;1.35;;
17177;SDS011;8704;52.006;4.374;2023-08-08T05:13:51;6.07;;;1.45;;
17177;SDS011;8704;52.006;4.374;2023-08-08T05:16:19;4.95;;;1.30;;
17177;SDS011;8704;52.006;4.374;2023-08-08T05:18:49;3.58;;;1.30;;
17177;SDS011;8704;52.006;4.374;2023-08-08T05:21:17;8.80;;;1.38;;
17177;SDS011;8704;52.006;4.374;2023-08-08T05:23:46;4.07;;;1.20;;
17177;SDS011;8704;52.006;4.374;2023-08-08T05:26:14;4.57;;;1.10;;
17177;SDS011;8704;52.006;4.374;2023-08-08T05:28:43;3.47;;;1.08;;
17177;SDS011;8704;52.006;4.374;2023-08-08T05:31:11;3.28;;;0.95;;
17177;SDS011;8704;52.006;4.374;2023-08-08T05:33:39;3.63;;;1.17;;
17177;SDS011;8704;52.006;4.374;2023-08-08T05:36:07;5.95;;;1.30;;
17177;SDS011;8704;52.006;4.374;2023-08-08T05:38:36;4.00;;;1.17;;
17177;SDS011;8704;52.006;4.374;2023-08-08T05:41:05;4.03;;;1.23;;
17177;SDS011;8704;52.006;4.374;2023-08-08T05:43:33;7.78;;;0.98;;
17177;SDS011;8704;52.006;4.374;2023-08-08T05:46:01;4.80;;;1.17;;
17177;SDS011;8704;52.006;4.374;2023-08-08T05:48:30;4.88;;;1.38;;
17177;SDS011;8704;52.006;4.374;2023-08-08T05:50:58;5.70;;;1.23;;
17177;SDS011;8704;52.006;4.374;2023-08-08T05:53:26;6.22;;;1.33;;
17177;SDS011;8704;52.006;4.374;2023-08-08T05:55:55;4.50;;;1.38;;
17177;SDS011;8704;52.006;4.374;2023-08-08T05:58:24;5.53;;;1.17;;
17177;SDS011;8704;52.006;4.374;2023-08-08T06:00:52;2.22;;;0.90;;
17177;SDS011;8704;52.006;4.374;2023-08-08T06:03:21;4.10;;;1.20;;
17177;SDS011;8704;52.006;4.374;2023-08-08T06:05:49;3.97;;;1.00;;
17177;SDS011;8704;52.006;4.374;2023-08-08T06:08:17;6.03;;;1.40;;
17177;SDS011;8704;52.006;4.374;2023-08-08T06:10:45;5.03;;;1.00;;
17177;SDS011;8704;52.006;4.374;2023-08-08T06:13:13;6.03;;;1.00;;
17177;SDS011;8704;52.006;4.374;2023-08-08T06:15:42;4.30;;;1.20;;
17177;SDS011;8704;52.006;4.374;2023-08-08T06:18:11;3.88;;;1.20;;
17177;SDS011;8704;52.006;4.374;2023-08-08T06:20:39;4.82;;;1.08;;
17177;SDS011;8704;52.006;4.374;2023-08-08T06:23:07;3.85;;;1.27;;
17177;SDS011;8704;52.006;4.374;2023-08-08T06:25:35;3.63;;;1.00;;
17177;SDS011;8704;52.006;4.374;2023-08-08T06:28:05;5.00;;;1.17;;
17177;SDS011;8704;52.006;4.374;2023-08-08T06:30:33;3.25;;;1.00;;
17177;SDS011;8704;52.006;4.374;2023-08-08T06:33:03;5.32;;;1.25;;
17177;SDS011;8704;52.006;4.374;2023-08-08T06:35:32;3.28;;;1.00;;
17177;SDS011;8704;52.006;4.374;2023-08-08T06:38:00;4.97;;;1.15;;
17177;SDS011;8704;52.006;4.374;2023-08-08T06:40:29;3.50;;;0.90;;
17177;SDS011;8704;52.006;4.374;2023-08-08T06:42:57;4.28;;;1.20;;
17177;SDS011;8704;52.006;4.374;2023-08-08T06:45:25;4.10;;;1.08;;
17177;SDS011;8704;52.006;4.374;2023-08-08T06:47:53;5.65;;;1.20;;
17177;SDS011;8704;52.006;4.374;2023-08-08T06:50:23;4.13;;;1.00;;
17177;SDS011;8704;52.006;4.374;2023-08-08T06:52:51;2.00;;;0.98;;
17177;SDS011;8704;52.006;4.374;2023-08-08T06:55:19;5.72;;;1.20;;
17177;SDS011;8704;52.006;4.374;2023-08-08T06:57:47;3.80;;;0.98;;
17177;SDS011;8704;52.006;4.374;2023-08-08T07:00:16;4.95;;;1.00;;
17177;SDS011;8704;52.006;4.374;2023-08-08T07:02:44;3.05;;;1.00;;
17177;SDS011;8704;52.006;4.374;2023-08-08T07:05:12;3.80;;;1.27;;
17177;SDS011;8704;52.006;4.374;2023-08-08T07:07:42;3.53;;;1.05;;
17177;SDS011;8704;52.006;4.374;2023-08-08T07:10:11;3.00;;;0.95;;
17177;SDS011;8704;52.006;4.374;2023-08-08T07:12:39;3.35;;;0.90;;
17177;SDS011;8704;52.006;4.374;2023-08-08T07:15:08;6.97;;;0.93;;
17177;SDS011;8704;52.006;4.374;2023-08-08T07:17:37;5.10;;;1.10;;
17177;SDS011;8704;52.006;4.374;2023-08-08T07:20:05;4.00;;;1.00;;
17177;SDS011;8704;52.006;4.374;2023-08-08T07:22:36;4.68;;;0.95;;
17177;SDS011;8704;52.006;4.374;2023-08-08T07:25:06;3.35;;;0.90;;
17177;SDS011;8704;52.006;4.374;2023-08-08T07:27:35;2.30;;;0.85;;
17177;SDS011;8704;52.006;4.374;2023-08-08T07:30:03;5.25;;;1.20;;
17177;SDS011;8704;52.006;4.374;2023-08-08T07:32:33;2.97;;;1.00;;
17177;SDS011;8704;52.006;4.374;2023-08-08T07:35:02;3.90;;;1.20;;
17177;SDS011;8704;52.006;4.374;2023-08-08T07:37:32;2.35;;;0.90;;
17177;SDS011;8704;52.006;4.374;2023-08-08T07:40:00;3.30;;;1.13;;
17177;SDS011;8704;52.006;4.374;2023-08-08T07:42:31;3.88;;;0.93;;
17177;SDS011;8704;52.006;4.374;2023-08-08T07:44:59;3.58;;;1.08;;
17177;SDS011;8704;52.006;4.374;2023-08-08T07:47:27;5.38;;;1.13;;
17177;SDS011;8704;52.006;4.374;2023-08-08T07:49:56;3.15;;;1.20;;
17177;SDS011;8704;52.006;4.374;2023-08-08T07:52:24;3.78;;;1.20;;
17177;SDS011;8704;52.006;4.374;2023-08-08T07:54:52;5.78;;;1.30;;
17177;SDS011;8704;52.006;4.374;2023-08-08T07:57:20;4.78;;;0.85;;
17177;SDS011;8704;52.006;4.374;2023-08-08T07:59:49;5.20;;;1.02;;
17177;SDS011;8704;52.006;4.374;2023-08-08T08:02:18;3.33;;;0.98;;
17177;SDS011;8704;52.006;4.374;2023-08-08T08:04:46;3.28;;;1.25;;
17177;SDS011;8704;52.006;4.374;2023-08-08T08:07:14;2.60;;;0.90;;
17177;SDS011;8704;52.006;4.374;2023-08-08T08:09:42;3.25;;;1.15;;
17177;SDS011;8704;52.006;4.374;2023-08-08T08:12:11;3.22;;;1.17;;
17177;SDS011;8704;52.006;4.374;2023-08-08T08:14:39;4.75;;;1.40;;
17177;SDS011;8704;52.006;4.374;2023-08-08T08:17:09;3.25;;;0.90;;
17177;SDS011;8704;52.006;4.374;2023-08-08T08:19:37;4.10;;;0.95;;
17177;SDS011;8704;52.006;4.374;2023-08-08T08:22:05;2.85;;;1.08;;
17177;SDS011;8704;52.006;4.374;2023-08-08T08:24:33;2.95;;;1.23;;
17177;SDS011;8704;52.006;4.374;2023-08-08T08:27:02;5.38;;;1.10;;
17177;SDS011;8704;52.006;4.374;2023-08-08T08:29:30;4.07;;;1.30;;
17177;SDS011;8704;52.006;4.374;2023-08-08T08:31:59;5.97;;;1.73;;
17177;SDS011;8704;52.006;4.374;2023-08-08T08:34:29;3.67;;;1.10;;
17177;SDS011;8704;52.006;4.374;2023-08-08T08:36:57;4.63;;;1.10;;
17177;SDS011;8704;52.006;4.374;2023-08-08T08:39:25;4.10;;;1.63;;
17177;SDS011;8704;52.006;4.374;2023-08-08T08:41:54;5.35;;;1.40;;
17177;SDS011;8704;52.006;4.374;2023-08-08T08:44:28;4.47;;;1.30;;
17177;SDS011;8704;52.006;4.374;2023-08-08T08:46:58;2.72;;;1.08;;
17177;SDS011;8704;52.006;4.374;2023-08-08T08:49:30;2.40;;;1.10;;
17177;SDS011;8704;52.006;4.374;2023-08-08T08:51:59;4.30;;;1.20;;
17177;SDS011;8704;52.006;4.374;2023-08-08T08:54:28;4.43;;;1.13;;
17177;SDS011;8704;52.006;4.374;2023-08-08T08:56:57;5.88;;;1.13;;
17177;SDS011;8704;52.006;4.374;2023-08-08T08:59:26;4.18;;;1.00;;
17177;SDS011;8704;52.006;4.374;2023-08-08T09:01:54;3.47;;;1.38;;
17177;SDS011;8704;52.006;4.374;2023-08-08T09:04:24;3.28;;;1.00;;
17177;SDS011;8704;52.006;4.374;2023-08-08T09:06:53;1.95;;;0.80;;
17177;SDS011;8704;52.006;4.374;2023-08-08T09:09:22;3.80;;;1.00;;
17177;SDS011;8704;52.006;4.374;2023-08-08T09:11:50;4.18;;;1.25;;
17177;SDS011;8704;52.006;4.374;2023-08-08T09:14:21;3.03;;;1.20;;
17177;SDS011;8704;52.006;4.374;2023-08-08T09:16:51;4.00;;;1.38;;
17177;SDS011;8704;52.006;4.374;2023-08-08T09:19:20;3.38;;;1.00;;
17177;SDS011;8704;52.006;4.374;2023-08-08T09:21:49;2.60;;;1.00;;
17177;SDS011;8704;52.006;4.374;2023-08-08T09:24:20;4.72;;;1.20;;
17177;SDS011;8704;52.006;4.374;2023-08-08T09:26:48;3.88;;;1.10;;
17177;SDS011;8704;52.006;4.374;2023-08-08T09:29:16;4.47;;;0.95;;
17177;SDS011;8704;52.006;4.374;2023-08-08T09:31:45;3.20;;;0.93;;
17177;SDS011;8704;52.006;4.374;2023-08-08T09:34:14;4.68;;;1.08;;
17177;SDS011;8704;52.006;4.374;2023-08-08T09:36:42;2.72;;;1.05;;
17177;SDS011;8704;52.006;4.374;2023-08-08T09:39:12;4.45;;;1.20;;
17177;SDS011;8704;52.006;4.374;2023-08-08T09:41:42;2.05;;;0.90;;
17177;SDS011;8704;52.006;4.374;2023-08-08T09:44:12;3.80;;;1.20;;
17177;SDS011;8704;52.006;4.374;2023-08-08T09:46:41;6.78;;;1.08;;
17177;SDS011;8704;52.006;4.374;2023-08-08T09:49:09;3.75;;;1.05;;
17177;SDS011;8704;52.006;4.374;2023-08-08T09:51:38;4.75;;;1.15;;
17177;SDS011;8704;52.006;4.374;2023-08-08T09:54:07;3.78;;;1.30;;
17177;SDS011;8704;52.006;4.374;2023-08-08T09:56:35;7.90;;;1.30;;
17177;SDS011;8704;52.006;4.374;2023-08-08T09:59:06;3.03;;;1.00;;
17177;SDS011;8704;52.006;4.374;2023-08-08T10:01:37;4.68;;;1.13;;
17177;SDS011;8704;52.006;4.374;2023-08-08T10:04:08;4.88;;;1.42;;
17177;SDS011;8704;52.006;4.374;2023-08-08T10:06:37;5.20;;;1.30;;
17177;SDS011;8704;52.006;4.374;2023-08-08T10:09:05;3.15;;;1.15;;
17177;SDS011;8704;52.006;4.374;2023-08-08T10:11:34;2.92;;;1.17;;
17177;SDS011;8704;52.006;4.374;2023-08-08T10:14:03;3.95;;;1.55;;
17177;SDS011;8704;52.006;4.374;2023-08-08T10:16:33;2.60;;;1.13;;
17177;SDS011;8704;52.006;4.374;2023-08-08T10:19:03;1.60;;;0.90;;
17177;SDS011;8704;52.006;4.374;2023-08-08T10:21:33;3.78;;;1.17;;
17177;SDS011;8704;52.006;4.374;2023-08-08T10:24:02;3.20;;;1.10;;
17177;SDS011;8704;52.006;4.374;2023-08-08T10:26:32;3.53;;;1.25;;
17177;SDS011;8704;52.006;4.374;2023-08-08T10:29:00;4.90;;;1.35;;
17177;SDS011;8704;52.006;4.374;2023-08-08T10:31:34;3.75;;;1.38;;
17177;SDS011;8704;52.006;4.374;2023-08-08T10:34:03;2.97;;;1.20;;
17177;SDS011;8704;52.006;4.374;2023-08-08T10:36:42;2.88;;;1.15;;
17177;SDS011;8704;52.006;4.374;2023-08-08T10:39:14;2.58;;;1.10;;
17177;SDS011;8704;52.006;4.374;2023-08-08T10:41:44;4.32;;;1.20;;
17177;SDS011;8704;52.006;4.374;2023-08-08T10:44:13;3.03;;;1.10;;
17177;SDS011;8704;52.006;4.374;2023-08-08T10:46:50;4.30;;;1.17;;
17177;SDS011;8704;52.006;4.374;2023-08-08T10:49:19;4.18;;;1.40;;
17177;SDS011;8704;52.006;4.374;2023-08-08T10:51:48;2.40;;;1.17;;
17177;SDS011;8704;52.006;4.374;2023-08-08T10:54:18;5.22;;;1.27;;
17177;SDS011;8704;52.006;4.374;2023-08-08T10:56:49;4.13;;;1.10;;
17177;SDS011;8704;52.006;4.374;2023-08-08T10:59:18;2.80;;;0.95;;
17177;SDS011;8704;52.006;4.374;2023-08-08T11:04:20;4.50;;;1.00;;
17177;SDS011;8704;52.006;4.374;2023-08-08T11:06:49;3.83;;;1.05;;
17177;SDS011;8704;52.006;4.374;2023-08-08T11:09:20;4.32;;;1.33;;
17177;SDS011;8704;52.006;4.374;2023-08-08T11:11:49;4.45;;;1.20;;
17177;SDS011;8704;52.006;4.374;2023-08-08T11:14:18;3.92;;;1.40;;
17177;SDS011;8704;52.006;4.374;2023-08-08T11:16:48;4.03;;;1.17;;
17177;SDS011;8704;52.006;4.374;2023-08-08T11:19:19;4.57;;;1.20;;
17177;SDS011;8704;52.006;4.374;2023-08-08T11:21:49;2.30;;;0.90;;
17177;SDS011;8704;52.006;4.374;2023-08-08T11:24:17;4.18;;;1.20;;
17177;SDS011;8704;52.006;4.374;2023-08-08T11:26:46;5.78;;;1.10;;
17177;SDS011;8704;52.006;4.374;2023-08-08T11:29:14;4.30;;;1.08;;
17177;SDS011;8704;52.006;4.374;2023-08-08T11:31:42;4.50;;;1.20;;
17177;SDS011;8704;52.006;4.374;2023-08-08T11:34:11;4.47;;;1.08;;
17177;SDS011;8704;52.006;4.374;2023-08-08T11:36:44;2.92;;;1.00;;
17177;SDS011;8704;52.006;4.374;2023-08-08T11:39:13;4.63;;;1.15;;
17177;SDS011;8704;52.006;4.374;2023-08-08T11:41:42;5.55;;;1.25;;
17177;SDS011;8704;52.006;4.374;2023-08-08T11:44:11;5.47;;;1.10;;
17177;SDS011;8704;52.006;4.374;2023-08-08T11:46:43;4.30;;;1.10;;
17177;SDS011;8704;52.006;4.374;2023-08-08T11:49:13;7.38;;;1.35;;
17177;SDS011;8704;52.006;4.374;2023-08-08T11:51:42;5.05;;;1.50;;
17177;SDS011;8704;52.006;4.374;2023-08-08T11:54:12;4.47;;;1.50;;
17177;SDS011;8704;52.006;4.374;2023-08-08T11:56:41;4.40;;;1.17;;
17177;SDS011;8704;52.006;4.374;2023-08-08T11:59:09;2.95;;;1.10;;
17177;SDS011;8704;52.006;4.374;2023-08-08T12:01:39;4.70;;;1.40;;
17177;SDS011;8704;52.006;4.374;2023-08-08T12:04:09;5.32;;;1.40;;
17177;SDS011;8704;52.006;4.374;2023-08-08T12:06:37;3.47;;;1.20;;
17177;SDS011;8704;52.006;4.374;2023-08-08T12:09:07;5.95;;;1.40;;
17177;SDS011;8704;52.006;4.374;2023-08-08T12:11:40;3.90;;;1.30;;
17177;SDS011;8704;52.006;4.374;2023-08-08T12:14:11;3.50;;;1.20;;
17177;SDS011;8704;52.006;4.374;2023-08-08T12:16:40;4.88;;;1.13;;
17177;SDS011;8704;52.006;4.374;2023-08-08T12:19:10;5.75;;;1.23;;
17177;SDS011;8704;52.006;4.374;2023-08-08T12:21:40;3.63;;;1.15;;
17177;SDS011;8704;52.006;4.374;2023-08-08T12:24:10;3.20;;;1.20;;
17177;SDS011;8704;52.006;4.374;2023-08-08T12:26:38;3.28;;;1.25;;
17177;SDS011;8704;52.006;4.374;2023-08-08T12:29:06;3.22;;;1.20;;
17177;SDS011;8704;52.006;4.374;2023-08-08T12:31:34;5.43;;;1.23;;
17177;SDS011;8704;52.006;4.374;2023-08-08T12:34:02;4.10;;;1.23;;
17177;SDS011;8704;52.006;4.374;2023-08-08T12:36:31;2.65;;;1.23;;
17177;SDS011;8704;52.006;4.374;2023-08-08T12:38:59;3.45;;;1.45;;
17177;SDS011;8704;52.006;4.374;2023-08-08T12:41:28;3.65;;;1.25;;
17177;SDS011;8704;52.006;4.374;2023-08-08T12:43:57;4.03;;;1.35;;
17177;SDS011;8704;52.006;4.374;2023-08-08T12:46:25;4.60;;;1.45;;
17177;SDS011;8704;52.006;4.374;2023-08-08T12:48:53;4.28;;;1.52;;
17177;SDS011;8704;52.006;4.374;2023-08-08T12:51:21;3.33;;;1.13;;
17177;SDS011;8704;52.006;4.374;2023-08-08T12:53:49;3.58;;;1.55;;
17177;SDS011;8704;52.006;4.374;2023-08-08T12:56:18;3.67;;;1.05;;
17177;SDS011;8704;52.006;4.374;2023-08-08T12:58:47;5.53;;;1.50;;
17177;SDS011;8704;52.006;4.374;2023-08-08T13:01:16;3.47;;;1.40;;
17177;SDS011;8704;52.006;4.374;2023-08-08T13:03:44;3.05;;;1.30;;
17177;SDS011;8704;52.006;4.374;2023-08-08T13:06:21;4.10;;;1.50;;
17177;SDS011;8704;52.006;4.374;2023-08-08T13:08:49;3.30;;;1.20;;
17177;SDS011;8704;52.006;4.374;2023-08-08T13:11:17;4.25;;;1.50;;
17177;SDS011;8704;52.006;4.374;2023-08-08T13:13:45;4.97;;;1.60;;
17177;SDS011;8704;52.006;4.374;2023-08-08T13:16:15;4.38;;;1.42;;
17177;SDS011;8704;52.006;4.374;2023-08-08T13:18:42;3.38;;;1.30;;
17177;SDS011;8704;52.006;4.374;2023-08-08T13:21:10;7.63;;;1.70;;
17177;SDS011;8704;52.006;4.374;2023-08-08T13:23:40;6.82;;;1.42;;
17177;SDS011;8704;52.006;4.374;2023-08-08T13:26:08;2.92;;;1.30;;
17177;SDS011;8704;52.006;4.374;2023-08-08T13:28:36;4.07;;;1.90;;
17177;SDS011;8704;52.006;4.374;2023-08-08T13:31:06;4.25;;;1.23;;
17177;SDS011;8704;52.006;4.374;2023-08-08T13:33:34;2.50;;;1.13;;
17177;SDS011;8704;52.006;4.374;2023-08-08T13:36:03;4.55;;;1.50;;
17177;SDS011;8704;52.006;4.374;2023-08-08T13:38:31;6.90;;;1.55;;
17177;SDS011;8704;52.006;4.374;2023-08-08T13:40:59;3.55;;;1.52;;
17177;SDS011;8704;52.006;4.374;2023-08-08T13:43:27;3.80;;;1.38;;
17177;SDS011;8704;52.006;4.374;2023-08-08T13:45:56;3.67;;;1.75;;
17177;SDS011;8704;52.006;4.374;2023-08-08T13:48:28;6.88;;;1.88;;
17177;SDS011;8704;52.006;4.374;2023-08-08T13:50:57;3.70;;;1.50;;
17177;SDS011;8704;52.006;4.374;2023-08-08T13:53:26;4.65;;;1.77;;
17177;SDS011;8704;52.006;4.374;2023-08-08T13:55:54;5.15;;;1.70;;
17177;SDS011;8704;52.006;4.374;2023-08-08T13:58:22;5.93;;;1.98;;
17177;SDS011;8704;52.006;4.374;2023-08-08T14:00:50;4.63;;;1.50;;
17177;SDS011;8704;52.006;4.374;2023-08-08T14:03:19;4.22;;;1.48;;
17177;SDS011;8704;52.006;4.374;2023-08-08T14:05:49;4.30;;;1.83;;
17177;SDS011;8704;52.006;4.374;2023-08-08T14:08:18;4.18;;;1.50;;
17177;SDS011;8704;52.006;4.374;2023-08-08T14:10:47;5.38;;;1.80;;
17177;SDS011;8704;52.006;4.374;2023-08-08T14:13:15;3.78;;;1.50;;
17177;SDS011;8704;52.006;4.374;2023-08-08T14:15:45;3.67;;;1.25;;
17177;SDS011;8704;52.006;4.374;2023-08-08T14:18:13;2.78;;;1.40;;
17177;SDS011;8704;52.006;4.374;2023-08-08T14:20:41;5.10;;;1.33;;
17177;SDS011;8704;52.006;4.374;2023-08-08T14:23:11;3.53;;;1.50;;
17177;SDS011;8704;52.006;4.374;2023-08-08T14:25:39;5.43;;;1.63;;
17177;SDS011;8704;52.006;4.374;2023-08-08T14:28:08;5.38;;;1.55;;
17177;SDS011;8704;52.006;4.374;2023-08-08T14:30:36;5.47;;;1.48;;
17177;SDS011;8704;52.006;4.374;2023-08-08T14:33:04;4.93;;;1.77;;
17177;SDS011;8704;52.006;4.374;2023-08-08T14:35:33;4.28;;;1.55;;
17177;SDS011;8704;52.006;4.374;2023-08-08T14:38:01;2.80;;;1.50;;
17177;SDS011;8704;52.006;4.374;2023-08-08T14:40:30;5.22;;;2.03;;
17177;SDS011;8704;52.006;4.374;2023-08-08T14:43:03;4.82;;;1.77;;
17177;SDS011;8704;52.006;4.374;2023-08-08T14:45:36;4.70;;;1.65;;
17177;SDS011;8704;52.006;4.374;2023-08-08T14:48:05;6.68;;;1.80;;
17177;SDS011;8704;52.006;4.374;2023-08-08T14:50:34;6.18;;;1.90;;
17177;SDS011;8704;52.006;4.374;2023-08-08T14:53:02;6.47;;;2.17;;
17177;SDS011;8704;52.006;4.374;2023-08-08T14:55:33;4.55;;;1.63;;
17177;SDS011;8704;52.006;4.374;2023-08-08T14:58:01;6.78;;;1.88;;
17177;SDS011;8704;52.006;4.374;2023-08-08T15:00:30;4.57;;;1.58;;
17177;SDS011;8704;52.006;4.374;2023-08-08T15:02:58;4.18;;;1.58;;
17177;SDS011;8704;52.006;4.374;2023-08-08T15:05:26;4.32;;;1.73;;
17177;SDS011;8704;52.006;4.374;2023-08-08T15:07:55;4.25;;;1.70;;
17177;SDS011;8704;52.006;4.374;2023-08-08T15:10:23;3.63;;;1.73;;
17177;SDS011;8704;52.006;4.374;2023-08-08T15:12:52;4.68;;;1.73;;